Argonia, KS

8:06 PM CDT on July 22, 2014 (GMT -0500)
Caldwell Hess (KKSCALDW8) Elev 1165 ft | 37.04 °N, 97.62 °W | Change Station
Active Advisory: Heat Advisory

Current weather conditions updated 10 minutes ago

Clear
Clear
93.1 °F
Feels Like 102 °F
N
0.0
Wind Variable Wind from NW
Gusts 3.0 mph

Tomorrow is forecast to be Cooler than today.

Today
High -- | Low -- °F
--% Chance of Precip.
Yesterday
High -- | Low -- °F
Precip. -- in
6:27 AM 8:46 PM
Waning Crescent, 14% visible
Pressure 29.99 in
Visibility 10.0 miles
Clouds Clear
Heat Index 102 °F
Dew Point 73 °F
Humidity 52%
Rainfall 0.00 in
Snow Depth Not available.
UV 0.0 out of 12
Pollen 5.40 out of 12
Air Quality Not available.
Flu Activity Not available.
METAR KICT 230053Z 16007KT 10SM CLR 33/22 A3005 RMK AO2 SLP156 T03330222

More Conditions Fewer Conditions

Pressure 29.99 in
Visibility 10.0 miles
Clouds Clear
Heat Index 102 °F
Dew Point 73 °F
Humidity 52%
Rainfall 0.00 in
Snow Depth Not available.
UV 0.0 out of 12
Pollen 5.40 out of 12
Air Quality Not available.
Flu Activity Not available.
METAR KICT 230053Z 16007KT 10SM CLR 33/22 A3005 RMK AO2 SLP156 T03330222

More Conditions Fewer Conditions

10-Day Weather Forecast

Almanac

Astronomy

Jul. 22, 2014 Rise Set
Actual Time 6:27 AM CDT 8:46 PM CDT
Civil Twilight 5:58 AM CDT 9:16 PM CDT
Nautical Twilight 5:21 AM CDT 9:52 PM CDT
Astronomical Twilight 4:41 AM CDT 10:32 PM CDT
Moon 3:00 AM CDT (7/22) 5:26 PM CDT (7/22)
Length of Visible Light 15h 18m
Length of Day
14h 19m
Tomorrow will be 1m 29s shorter.
Waning Crescent, 14% of the Moon is Illuminated
Today
Waning Crescent
Jul 26
New
Aug 3
First Quarter
Aug 10
Full
Aug 17
Last Quarter

Today's Extremes

State Highs State Lows

Community

WunderPhotos

Upload Photos

1,736,421 photos uploaded!

Nearby

Snow Depth

Station Depth Elevation
No new snow has been reported.

Earthquake Activity

City Distance Mag. Time & Date
Spencer, Oklahoma 117 miles 2.7 4:56 PM CDT
2014-07-18
Helena, Oklahoma 47 miles 3.2 8:41 AM CDT
2014-07-18
Guthrie, Oklahoma 99 miles 2.9 8:59 PM CDT
2014-07-17
Perry, Oklahoma 82 miles 2.8 8:37 PM CDT
2014-07-17
Minimum magnitude displayed is 2.5.

Coastal Water Temperatures

Place Temperature
No Stations Reporting

Nearby Weather Stations

Station Location Temp. Heat Index Dew Point Humidity Wind Precip. Elev Updated Type
MesoWest PERTH , Mayfield, KS 96 °F 91 °F - - North  at  - 0.00 in / hr 1228 ft 5:20 PM CDT MADIS
Caldwell Hess, Caldwell, KS 93.1 °F 102 °F 73 °F 52% NW  at  0.0 mph 0.00 in / hr 1165 ft 7:56 PM CDT Normal
KanOkla, Caldwell, KS 94.8 °F 105 °F 74 °F 51% SSE  at  1.0 mph 0.00 in / hr 1168 ft 8:05 PM CDT Normal
Dove Haven, Clearwater, KS 91.5 °F 102 °F 75 °F 58% SSE  at  5.0 mph 0.00 in / hr 1394 ft 8:05 PM CDT Normal

Show More Stations Show Fewer Stations